Time;durP1;ratioP1;P1;durP2;ratioP2;P2;SDS_P1;SDS_P2;PMS_P1;PMS_P2;Temp;Humidity;BMP_temperature;BMP_pressure;BME280_temperature;BME280_humidity;BME280_pressure;Samples;Min_cycle;Max_cycle;Signal;HPM_P1;HPM_P2
2021/03/27 00:02:08;;;;;;;20.27;5.32;;;10.90;48.50;;;9.68;48.37;96007.88;5025776;28;20030;-67
2021/03/27 00:05:13;;;;;;;9.80;5.70;;;10.90;48.50;;;9.67;48.71;96006.25;5031471;28;20719;-67
2021/03/27 00:08:12;;;;;;;10.40;5.07;;;10.80;48.60;;;9.64;48.34;96016.31;5044315;28;20040;-67
2021/03/27 00:10:59;;;;;;;6.63;4.65;;;10.80;48.70;;;9.66;48.37;96019.56;5004296;28;20037;-67
2021/03/27 00:13:31;;;;;;;8.60;5.43;;;11.00;48.70;;;9.68;48.13;96018.38;5011627;28;20408;-67
2021/03/27 00:16:20;;;;;;;8.70;5.18;;;10.90;48.90;;;9.68;49.02;96031.50;5021414;28;20522;-67
2021/03/27 00:18:53;;;;;;;8.10;4.97;;;10.90;49.10;;;9.66;47.85;96024.81;5027670;28;20037;-67
2021/03/27 00:21:25;;;;;;;7.80;4.75;;;10.80;49.40;;;9.61;49.38;96048.19;5025796;28;20654;-67
2021/03/27 00:23:55;;;;;;;11.65;5.32;;;10.70;50.10;;;9.61;48.01;96056.88;5051290;28;20036;-68
2021/03/27 00:26:37;;;;;;;10.93;6.13;;;10.80;50.50;;;9.63;49.78;96054.06;5026011;28;20555;-69
2021/03/27 00:29:17;;;;;;;9.43;5.75;;;10.90;50.30;;;9.58;49.85;96080.88;5029708;28;20056;-68
2021/03/27 00:31:53;;;;;;;11.10;6.20;;;10.70;51.10;;;9.54;50.69;96071.75;5038997;28;20040;-69
2021/03/27 00:34:21;;;;;;;9.57;5.70;;;10.60;52.00;;;9.47;49.13;96081.34;5005976;28;20046;-67
2021/03/27 00:37:00;;;;;;;9.55;6.03;;;10.50;53.60;;;9.38;53.07;96074.56;5008746;28;20038;-66
2021/03/27 00:39:41;;;;;;;8.90;5.45;;;10.40;54.80;;;9.37;52.41;96067.69;4996724;28;20029;-67
2021/03/27 00:42:15;;;;;;;11.38;5.25;;;10.50;54.50;;;9.36;50.37;96055.56;5012875;28;20084;-67
2021/03/27 00:44:53;;;;;;;10.90;6.63;;;10.50;54.00;;;9.33;52.73;96056.75;5023733;28;20034;-66
2021/03/27 00:47:21;;;;;;;9.43;6.03;;;10.50;54.30;;;9.35;50.70;96053.94;5024967;28;20055;-67
2021/03/27 00:49:55;;;;;;;12.48;5.93;;;10.60;54.20;;;9.36;52.27;96061.63;5008315;28;20037;-67
2021/03/27 00:52:21;;;;;;;9.90;5.80;;;10.60;53.70;;;9.37;50.53;96054.56;5016680;28;20079;-67
2021/03/27 00:55:01;;;;;;;10.93;6.13;;;10.60;53.40;;;9.38;52.54;96035.19;5006753;28;20037;-67
2021/03/27 00:57:37;;;;;;;13.70;6.10;;;10.60;53.70;;;9.44;52.55;96008.19;5028341;28;20382;-67
2021/03/27 01:00:40;;;;;;;10.35;6.03;;;10.70;53.30;;;9.52;53.29;95997.59;5027849;28;20041;-67
2021/03/27 01:03:17;;;;;;;10.85;6.03;;;10.90;53.40;;;9.57;53.33;95986.53;5008233;28;20033;-67
2021/03/27 01:05:43;;;;;;;9.32;5.93;;;11.10;53.50;;;9.61;51.37;95985.97;5013546;28;20382;-67
2021/03/27 01:08:10;;;;;;;10.05;5.97;;;11.10;53.70;;;9.69;51.85;95998.97;5023634;28;20070;-67
2021/03/27 01:10:48;;;;;;;10.02;6.07;;;11.20;54.60;;;9.72;53.54;95988.09;5031519;28;20028;-67
2021/03/27 01:13:18;;;;;;;9.25;5.97;;;11.10;53.90;;;9.75;52.45;95998.25;5028863;28;20512;-67
2021/03/27 01:15:56;;;;;;;9.95;5.97;;;11.20;53.60;;;9.74;53.35;95996.63;5022489;28;20421;-67
2021/03/27 01:18:35;;;;;;;8.85;5.57;;;11.10;53.60;;;9.74;53.82;95996.63;5011712;28;20703;-67
2021/03/27 01:21:07;;;;;;;8.63;5.68;;;11.10;53.80;;;9.73;52.69;95995.00;5013747;28;20677;-67
2021/03/27 01:23:32;;;;;;;12.18;5.65;;;11.10;53.90;;;9.73;51.48;95994.16;5013184;28;20124;-67
2021/03/27 01:26:00;;;;;;;8.88;5.60;;;11.00;54.10;;;9.70;52.31;96003.25;5028633;28;20041;-67
2021/03/27 01:28:37;;;;;;;10.45;6.57;;;11.00;54.30;;;9.66;53.74;96014.31;5032949;28;20045;-67
2021/03/27 01:31:07;;;;;;;11.27;6.28;;;10.80;54.20;;;9.58;52.76;96014.44;5041991;28;20029;-67
2021/03/27 01:34:21;;;;;;;12.90;6.45;;;10.70;54.50;;;9.53;53.92;95999.22;5034598;28;20041;-66
2021/03/27 01:37:09;;;;;;;9.57;6.28;;;10.70;54.50;;;9.52;53.99;95985.28;5023729;28;20041;-67
2021/03/27 01:40:18;;;;;;;10.18;5.63;;;10.90;54.10;;;9.52;54.09;95987.09;5028308;28;20045;-67
2021/03/27 01:43:03;;;;;;;12.73;5.10;;;10.70;54.60;;;9.52;54.17;95987.09;5019847;28;20091;-67
2021/03/27 01:45:52;;;;;;;10.38;5.22;;;10.80;54.20;;;9.53;53.92;95983.47;5026264;28;20038;-67
2021/03/27 01:48:25;;;;;;;11.68;5.13;;;10.90;54.10;;;9.55;53.16;95970.16;5046852;28;20124;-67
2021/03/27 01:51:08;;;;;;;10.85;5.28;;;11.00;54.20;;;9.53;54.13;95967.72;5046010;28;20091;-66
2021/03/27 01:53:46;;;;;;;7.45;4.97;;;10.90;54.00;;;9.55;54.02;95976.22;5012914;28;20033;-67
2021/03/27 01:56:30;;;;;;;9.50;5.68;;;10.90;53.60;;;9.57;53.89;95986.53;5026772;28;20036;-67
2021/03/27 01:59:07;;;;;;;8.23;5.05;;;10.90;53.90;;;9.59;53.62;95977.47;5013451;28;20456;-67
2021/03/27 02:01:54;;;;;;;10.23;5.10;;;11.00;53.60;;;9.61;53.94;95975.47;5027970;28;20038;-67
2021/03/27 02:04:31;;;;;;;9.32;5.20;;;11.10;53.30;;;9.63;52.75;95975.28;5026226;28;20121;-67
2021/03/27 02:07:20;;;;;;;9.05;4.90;;;11.00;52.70;;;9.62;53.28;95984.16;5031130;28;20041;-66
2021/03/27 02:10:21;;;;;;;9.35;5.13;;;11.00;52.90;;;9.59;53.58;95977.47;5038348;28;20112;-67
2021/03/27 02:13:15;;;;;;;7.60;4.82;;;10.90;53.10;;;9.57;53.60;95974.22;5046968;28;20037;-68
2021/03/27 02:16:03;;;;;;;10.00;5.05;;;10.90;53.10;;;9.57;53.91;95968.97;5001285;28;20072;-67
2021/03/27 02:18:59;;;;;;;8.40;5.03;;;10.90;53.30;;;9.62;53.99;95952.66;5010590;28;20056;-67
2021/03/27 02:22:14;;;;;;;6.70;4.70;;;11.10;53.30;;;9.64;54.21;95964.59;5041564;28;20029;-67
2021/03/27 02:25:17;;;;;;;10.90;5.43;;;11.10;53.80;;;9.68;55.30;95975.53;5037811;28;20137;-67
2021/03/27 02:27:58;;;;;;;8.57;5.10;;;11.20;55.30;;;9.68;54.57;95981.59;5044514;28;20120;-67
2021/03/27 02:30:47;;;;;;;7.10;4.68;;;11.10;55.20;;;9.69;53.82;95974.53;5037863;28;20094;-67
2021/03/27 02:33:32;;;;;;;7.90;4.75;;;11.10;53.80;;;9.68;53.12;95976.34;4980111;28;20567;-67
2021/03/27 02:36:30;;;;;;;10.05;4.80;;;11.10;54.00;;;9.67;54.57;95985.22;5011059;28;20041;-67
2021/03/27 02:39:10;;;;;;;8.70;5.30;;;11.10;54.10;;;9.64;54.36;95984.78;5034864;28;20040;-67
2021/03/27 02:41:47;;;;;;;8.75;4.80;;;11.10;54.70;;;9.64;54.32;95995.28;5030544;28;20033;-67
2021/03/27 02:44:15;;;;;;;9.15;4.95;;;11.10;55.10;;;9.61;53.56;95995.66;5026111;28;20034;-67
2021/03/27 02:46:49;;;;;;;11.07;5.43;;;10.90;54.30;;;9.54;54.23;96006.09;5026758;28;20036;-67
2021/03/27 02:49:44;;;;;;;8.57;5.18;;;10.80;54.60;;;9.49;54.78;96013.69;5020686;28;20048;-67
2021/03/27 02:52:55;;;;;;;8.35;4.95;;;10.80;55.00;;;9.39;55.07;96005.31;5012401;28;20103;-67
2021/03/27 02:55:47;;;;;;;10.85;5.30;;;10.60;54.80;;;9.34;54.82;96015.56;5027444;28;20075;-66
2021/03/27 02:58:29;;;;;;;9.32;5.05;;;10.60;55.20;;;9.29;54.55;96012.66;5032065;28;20159;-67
2021/03/27 03:01:33;;;;;;;9.30;5.75;;;10.60;55.20;;;9.25;55.61;96020.06;5014962;28;20029;-67
2021/03/27 03:04:30;;;;;;;8.25;4.90;;;10.50;55.40;;;9.18;55.08;96027.88;5029075;28;20044;-67
2021/03/27 03:07:05;;;;;;;8.85;5.65;;;10.50;55.40;;;9.14;54.38;96023.16;5014658;28;20405;-67
2021/03/27 03:09:56;;;;;;;8.80;5.45;;;10.50;55.40;;;9.14;55.34;96015.28;5010519;28;20086;-67
2021/03/27 03:12:59;;;;;;;11.50;6.47;;;10.50;55.50;;;9.11;55.46;96019.09;5026429;28;20029;-66
2021/03/27 03:15:39;;;;;;;11.88;5.65;;;10.60;55.60;;;9.08;55.29;96016.03;5034600;28;20103;-67
2021/03/27 03:18:48;;;;;;;9.85;5.25;;;10.50;55.70;;;9.04;56.44;96014.75;5025913;28;20505;-68
2021/03/27 03:21:40;;;;;;;8.10;5.47;;;10.50;55.90;;;9.01;56.51;96021.16;5026507;28;20500;-66
2021/03/27 03:24:56;;;;;;;9.93;6.10;;;10.50;56.00;;;9.00;55.92;96016.09;5009698;28;20037;-68
2021/03/27 03:28:13;;;;;;;9.88;5.95;;;10.50;55.80;;;8.96;55.78;96036.63;4966108;28;20463;-67
2021/03/27 03:30:50;;;;;;;11.18;5.85;;;10.40;56.00;;;8.90;55.88;96043.44;5021360;28;20037;-67
2021/03/27 03:33:40;;;;;;;9.85;6.10;;;10.30;56.50;;;8.86;56.22;96047.41;5008041;28;20098;-67
2021/03/27 03:36:49;;;;;;;9.87;6.17;;;10.20;56.40;;;8.76;56.41;96048.66;5022467;28;20127;-67
2021/03/27 03:39:32;;;;;;;13.93;6.18;;;10.10;56.80;;;8.67;55.46;96055.78;5026550;28;20045;-67
2021/03/27 03:42:53;;;;;;;11.13;5.95;;;9.90;57.50;;;8.58;56.68;96055.03;5011860;28;20026;-67
2021/03/27 03:45:52;;;;;;;12.38;6.55;;;9.90;58.00;;;8.53;57.01;96059.16;5037584;28;20048;-67
2021/03/27 03:48:35;;;;;;;8.98;5.75;;;9.80;58.10;;;8.50;56.35;96055.09;5044581;28;20373;-67
2021/03/27 03:51:24;;;;;;;9.25;5.60;;;9.80;57.90;;;8.47;56.84;96059.88;5041339;28;20458;-67
2021/03/27 03:53:49;;;;;;;10.75;5.22;;;9.80;57.70;;;8.42;54.74;96057.81;5031041;28;20415;-66
2021/03/27 03:57:01;;;;;;;9.38;5.80;;;9.70;57.60;;;8.41;56.87;96058.78;5036326;28;20033;-67
2021/03/27 03:59:35;;;;;;;7.18;4.85;;;9.70;57.60;;;8.35;56.59;96064.72;5027875;28;20509;-66
2021/03/27 04:02:24;;;;;;;8.90;5.50;;;9.60;57.80;;;8.30;57.32;96054.75;5045251;28;20032;-67
2021/03/27 04:05:05;;;;;;;8.73;5.53;;;9.60;58.00;;;8.23;57.15;96058.25;5020927;28;20044;-67
2021/03/27 04:07:35;;;;;;;;;;;9.50;58.30;;;8.19;57.32;96056.97;5030168;28;20030;-66
2021/03/27 04:10:18;;;;;;;9.20;5.45;;;9.50;58.20;;;8.13;57.22;96063.69;5042929;28;19984;-67
2021/03/27 04:13:06;;;;;;;7.60;4.85;;;9.40;58.50;;;8.10;57.20;96068.47;5029727;28;20069;-67
2021/03/27 04:15:34;;;;;;;8.88;5.15;;;9.40;58.70;;;8.10;55.49;96081.56;5034027;28;20037;-67
2021/03/27 04:18:28;;;;;;;9.07;5.15;;;9.40;58.70;;;8.11;57.96;96091.06;5049025;28;20033;-66
2021/03/27 04:21:10;;;;;;;8.93;5.20;;;9.40;58.50;;;8.13;57.77;96097.75;5031433;28;20037;-67
2021/03/27 04:24:01;;;;;;;13.27;5.55;;;9.50;58.40;;;8.16;57.80;96104.47;5042776;28;20504;-66
2021/03/27 04:26:36;;;;;;;8.38;4.82;;;9.60;58.40;;;8.20;58.31;96103.13;5014758;28;20041;-67
2021/03/27 04:30:05;;;;;;;10.10;5.10;;;9.60;58.30;;;8.26;58.42;96111.13;5044106;28;20096;-66
2021/03/27 04:32:41;;;;;;;10.82;5.15;;;9.70;58.00;;;8.30;56.60;96120.25;5015802;28;20068;-64
2021/03/27 04:35:32;;;;;;;9.50;5.18;;;9.80;57.60;;;8.36;57.78;96121.38;5038880;28;20103;-66
2021/03/27 04:38:18;;;;;;;7.93;5.00;;;9.90;57.40;;;8.39;57.82;96123.69;5040256;28;20029;-65
2021/03/27 04:40:56;;;;;;;8.55;5.53;;;9.90;56.90;;;8.40;56.97;96133.19;5048754;28;20438;-65
2021/03/27 04:43:34;;;;;;;9.00;5.25;;;9.90;57.00;;;8.43;56.98;96138.06;5005918;28;20038;-66
2021/03/27 04:46:20;;;;;;;10.25;4.80;;;9.90;56.90;;;8.46;57.13;96137.72;4997573;28;20539;-65
2021/03/27 04:49:10;;;;;;;8.45;5.40;;;10.00;57.00;;;8.50;57.29;96138.19;5023888;28;20547;-68
2021/03/27 04:52:10;;;;;;;10.97;5.23;;;10.00;57.00;;;8.50;57.24;96144.22;5024544;28;20036;-67
2021/03/27 04:55:11;;;;;;;9.85;5.20;;;9.90;56.90;;;8.52;57.46;96147.50;5059904;28;20278;-67
2021/03/27 04:58:22;;;;;;;6.90;4.75;;;10.00;57.20;;;8.55;57.43;96152.38;5024625;28;20508;-68
2021/03/27 05:01:30;;;;;;;10.48;5.00;;;10.10;56.90;;;8.57;57.49;96158.25;5027684;28;20033;-67
2021/03/27 05:04:10;;;;;;;9.10;4.85;;;10.10;57.00;;;8.58;57.30;96172.19;5031680;28;20025;-67
2021/03/27 05:06:39;;;;;;;8.70;5.53;;;10.10;56.90;;;8.60;56.57;96175.47;5012078;28;20056;-67
2021/03/27 05:09:41;;;;;;;8.48;5.50;;;10.10;57.10;;;8.63;57.64;96182.19;5003187;28;20036;-67
2021/03/27 05:12:16;;;;;;;7.38;5.00;;;10.20;56.90;;;8.63;56.94;96188.25;5032233;28;20041;-68
2021/03/27 05:15:10;;;;;;;9.23;5.75;;;10.10;57.10;;;8.64;57.82;96191.69;5044782;28;20073;-67
2021/03/27 05:17:44;;;;;;;9.13;5.20;;;10.10;57.90;;;8.58;58.55;96175.63;5011886;28;20120;-67
2021/03/27 05:20:32;;;;;;;8.77;5.55;;;10.00;59.40;;;8.58;60.60;96182.69;5028932;28;20033;-68
2021/03/27 05:23:17;;;;;;;10.15;5.30;;;9.90;61.20;;;8.55;61.65;96189.09;5020587;28;20501;-67
2021/03/27 05:26:12;;;;;;;8.35;5.72;;;9.90;63.30;;;8.51;62.55;96182.56;5027772;28;20520;-68
2021/03/27 05:29:26;;;;;;;9.40;5.70;;;9.80;65.80;;;8.55;64.10;96190.91;5018535;28;20112;-67
2021/03/27 05:32:15;;;;;;;8.63;5.97;;;9.80;67.50;;;8.61;64.88;96192.03;5025772;28;20336;-65
2021/03/27 05:34:52;;;;;;;9.70;5.55;;;10.00;68.10;;;8.64;64.17;96196.91;5034554;28;20040;-65
2021/03/27 05:37:58;;;;;;;8.38;5.82;;;10.00;68.70;;;8.70;65.22;96206.69;5011135;28;20502;-64
2021/03/27 05:41:01;;;;;;;6.43;5.03;;;10.10;68.90;;;8.73;65.82;96211.59;5042422;28;20045;-66
2021/03/27 05:43:58;;;;;;;8.15;5.65;;;10.10;69.40;;;8.77;65.84;96212.88;5044029;28;20040;-67
2021/03/27 05:46:51;;;;;;;6.97;5.10;;;10.10;69.20;;;8.80;66.16;96223.00;5048414;28;20036;-67
2021/03/27 05:49:54;;;;;;;7.20;5.05;;;10.20;69.70;;;8.85;66.40;96231.19;5048814;28;20052;-67
2021/03/27 05:52:34;;;;;;;7.90;4.88;;;10.20;69.90;;;8.91;65.98;96243.59;5048355;28;20040;-67
2021/03/27 05:55:44;;;;;;;7.13;4.75;;;10.30;69.70;;;8.96;65.62;96238.63;5031847;28;20037;-67
2021/03/27 05:59:09;;;;;;;8.05;5.57;;;10.30;69.70;;;9.01;66.67;96238.94;5030138;28;20555;-67
2021/03/27 06:02:00;;;;;;;6.22;4.57;;;10.40;69.90;;;9.03;66.84;96260.56;4988780;28;20107;-67
2021/03/27 06:04:59;;;;;;;8.80;5.15;;;10.40;69.60;;;9.09;66.65;96259.88;5032214;28;20064;-68
2021/03/27 06:08:10;;;;;;;6.10;4.10;;;10.60;69.30;;;9.13;66.54;96263.78;5048564;28;20037;-67
2021/03/27 06:11:06;;;;;;;6.90;3.95;;;10.60;69.20;;;9.21;66.72;96255.81;5023289;28;20409;-67
2021/03/27 06:14:03;;;;;;;5.18;3.80;;;10.60;68.90;;;9.29;67.07;96243.66;5027849;28;20033;-67
2021/03/27 06:17:00;;;;;;;4.75;3.47;;;10.80;69.00;;;9.37;66.59;96251.44;5027072;28;20033;-66
2021/03/27 06:19:51;;;;;;;5.07;3.85;;;10.90;68.60;;;9.44;66.07;96257.59;5027523;28;20531;-67
2021/03/27 06:22:22;;;;;;;5.15;3.92;;;10.80;68.50;;;9.47;64.99;96267.75;5027087;28;20487;-67
2021/03/27 06:25:25;;;;;;;7.10;3.72;;;10.90;68.80;;;9.48;67.22;96269.38;5027189;28;20489;-67
2021/03/27 06:28:27;;;;;;;5.28;3.70;;;10.80;69.20;;;9.53;66.51;96272.31;4997271;28;20037;-67
2021/03/27 06:31:49;;;;;;;4.97;3.10;;;10.90;69.00;;;9.54;66.55;96273.13;5020964;28;20021;-67
2021/03/27 06:35:01;;;;;;;4.68;3.70;;;10.90;68.40;;;9.55;66.33;96280.81;5047721;28;20104;-67
2021/03/27 06:38:23;;;;;;;5.25;3.50;;;10.90;68.90;;;9.46;66.28;96280.06;5032485;28;20033;-66
2021/03/27 06:41:49;;;;;;;5.10;2.70;;;10.80;68.50;;;9.43;66.46;96295.34;5046811;28;20032;-67
2021/03/27 06:44:14;;;;;;;5.53;3.38;;;10.70;68.00;;;9.40;63.86;96293.91;5035243;28;20080;-67
2021/03/27 06:47:28;;;;;;;5.15;2.33;;;10.80;67.80;;;9.40;65.55;96301.78;5028045;28;20037;-67
2021/03/27 06:50:29;;;;;;;4.18;2.40;;;10.70;66.70;;;9.42;64.83;96309.47;5027399;28;20040;-67
2021/03/27 06:53:24;;;;;;;8.10;3.00;;;10.70;66.40;;;9.43;65.58;96303.22;5010587;28;20106;-67
2021/03/27 06:56:38;;;;;;;4.13;2.75;;;10.80;66.60;;;9.51;64.10;96311.06;5026927;28;20291;-67
2021/03/27 06:59:17;;;;;;;4.80;2.65;;;11.00;64.10;;;9.61;64.07;96321.31;5026460;28;20033;-67
2021/03/27 07:02:17;;;;;;;5.13;2.70;;;11.10;63.90;;;9.72;63.12;96320.88;5026863;28;20040;-67
2021/03/27 07:05:14;;;;;;;6.55;3.88;;;11.20;63.40;;;9.79;64.10;96325.25;5010070;28;20130;-68
2021/03/27 07:08:07;;;;;;;4.35;2.97;;;11.20;63.90;;;9.85;63.26;96328.16;5032797;28;20033;-67
2021/03/27 07:11:21;;;;;;;5.47;2.90;;;11.20;63.60;;;9.79;62.76;96335.75;5025073;28;20060;-68
2021/03/27 07:14:15;;;;;;;9.48;4.80;;;11.00;64.00;;;9.71;63.81;96369.97;5045731;28;20156;-65
2021/03/27 07:17:02;;;;;;;4.93;1.65;;;10.80;66.00;;;9.50;63.93;96419.69;5042109;28;20186;-66
2021/03/27 07:19:50;;;;;;;1.83;0.93;;;10.30;66.70;;;8.96;64.99;96427.53;5046421;28;20526;-66
2021/03/27 07:23:00;;;;;;;2.28;1.52;;;9.40;69.50;;;8.49;66.36;96430.97;5029511;28;20555;-66
2021/03/27 07:25:31;;;;;;;2.17;0.80;;;9.10;71.30;;;8.13;64.61;96442.78;5039422;28;20082;-66
2021/03/27 07:28:04;;;;;;;3.28;1.00;;;8.60;73.50;;;7.87;67.95;96469.97;5046720;28;20049;-66
2021/03/27 07:31:01;;;;;;;2.08;0.50;;;8.60;73.90;;;7.56;69.41;96469.78;5039607;28;20433;-65
2021/03/27 07:34:04;;;;;;;1.38;0.73;;;8.20;75.20;;;7.38;69.45;96477.75;5026233;28;20033;-65
2021/03/27 07:37:15;;;;;;;1.65;0.60;;;8.30;75.30;;;7.15;69.55;96486.34;5027007;28;20480;-64
2021/03/27 07:40:14;;;;;;;2.50;0.60;;;7.90;74.60;;;6.95;70.48;96499.66;5035627;28;20542;-64
2021/03/27 07:43:28;;;;;;;3.20;0.45;;;7.80;75.10;;;6.82;69.66;96501.09;4999006;28;20064;-64
2021/03/27 07:45:57;;;;;;;1.70;0.70;;;7.70;75.00;;;6.68;68.73;96505.91;5026025;28;20598;-65
2021/03/27 07:48:41;;;;;;;1.02;0.40;;;7.60;74.80;;;6.60;70.04;96521.53;5040902;28;20042;-66
2021/03/27 07:51:22;;;;;;;1.52;0.55;;;7.60;75.70;;;6.56;71.08;96532.44;5029774;28;20408;-65
2021/03/27 07:54:24;;;;;;;1.90;0.60;;;7.60;75.60;;;6.48;71.46;96541.03;5039829;28;20067;-65
2021/03/27 07:57:09;;;;;;;1.42;0.43;;;7.50;76.40;;;6.46;71.85;96543.00;5045832;28;20048;-65
2021/03/27 08:00:15;;;;;;;1.95;0.60;;;7.50;76.20;;;6.50;71.64;96552.16;5050893;28;20044;-64
2021/03/27 08:03:18;;;;;;;1.17;0.60;;;7.70;76.10;;;6.50;71.64;96553.97;5033330;28;20390;-66
2021/03/27 08:06:24;;;;;;;1.80;0.70;;;7.70;76.00;;;6.51;71.22;96556.41;5029758;28;20471;-64
2021/03/27 08:09:27;;;;;;;1.75;0.80;;;7.70;75.30;;;6.56;71.84;96556.78;5046855;28;20068;-66
2021/03/27 08:12:39;;;;;;;1.15;0.60;;;7.90;74.60;;;6.60;71.12;96558.13;5036045;28;20037;-67
2021/03/27 08:15:26;;;;;;;6.88;3.75;;;7.90;74.00;;;6.66;70.33;96567.97;5049337;28;20118;-66
2021/03/27 08:18:17;;;;;;;15.20;8.52;;;7.90;73.70;;;6.72;70.24;96569.97;5049614;28;20514;-66
2021/03/27 08:21:40;;;;;;;4.38;2.13;;;8.10;74.20;;;6.88;71.44;96581.50;5050850;28;20039;-66
2021/03/27 08:24:34;;;;;;;1.70;0.90;;;8.40;73.90;;;7.02;70.96;96586.19;5046818;28;20033;-66
2021/03/27 08:27:38;;;;;;;2.03;1.48;;;8.60;73.60;;;7.21;70.89;96585.13;5041511;28;20587;-66
2021/03/27 08:30:44;;;;;;;4.53;2.90;;;8.80;72.40;;;7.45;70.94;96587.03;5049643;28;20106;-66
2021/03/27 08:33:35;;;;;;;3.25;1.63;;;9.20;70.70;;;7.67;68.89;96596.94;5030273;28;20118;-66
2021/03/27 08:36:50;;;;;;;1.30;0.70;;;9.60;70.40;;;7.94;70.34;96594.09;5029001;28;20061;-66
2021/03/27 08:40:07;;;;;;;1.00;0.70;;;9.80;69.50;;;8.16;68.05;96604.94;4953537;28;20588;-66
2021/03/27 08:43:17;;;;;;;4.30;0.90;;;10.10;69.00;;;8.39;68.45;96602.53;5048308;28;20123;-66
2021/03/27 08:46:13;;;;;;;2.35;0.90;;;10.20;67.80;;;8.57;67.47;96611.03;5048966;28;20560;-66
2021/03/27 08:49:11;;;;;;;1.50;0.70;;;10.40;66.20;;;8.76;66.22;96623.00;5038130;28;20470;-67
2021/03/27 08:51:59;;;;;;;5.43;2.47;;;10.50;65.20;;;8.90;67.47;96625.81;5028713;28;20037;-67
2021/03/27 08:55:02;;;;;;;2.30;0.80;;;10.70;66.40;;;9.07;65.49;96618.75;5030424;28;20040;-66
2021/03/27 08:57:41;;;;;;;1.80;0.70;;;10.70;63.90;;;9.11;64.91;96630.53;5048140;28;20092;-66
2021/03/27 09:00:25;;;;;;;1.20;0.80;;;10.50;64.00;;;9.16;63.70;96633.47;5047705;28;20449;-68
2021/03/27 09:03:37;;;;;;;0.88;0.57;;;10.50;63.40;;;9.15;64.60;96637.09;5047726;28;20029;-67
2021/03/27 09:06:34;;;;;;;2.15;1.20;;;10.60;65.20;;;9.24;64.78;96629.19;5049369;28;20029;-68
2021/03/27 09:09:46;;;;;;;1.95;0.85;;;10.90;63.70;;;9.33;65.25;96630.81;5038948;28;20460;-67
2021/03/27 09:12:38;;;;;;;1.10;0.73;;;11.00;63.50;;;9.47;63.58;96640.63;5025668;28;20062;-68
2021/03/27 09:15:43;;;;;;;5.40;2.55;;;11.10;61.90;;;9.57;63.87;96632.56;5028205;28;20034;-66
2021/03/27 09:18:39;;;;;;;2.95;1.10;;;11.30;62.10;;;9.64;63.80;96636.94;5040709;28;20029;-64
2021/03/27 09:21:23;;;;;;;3.22;0.95;;;11.20;62.10;;;9.67;62.15;96647.13;5048035;28;20056;-64
2021/03/27 09:24:19;;;;;;;1.00;0.70;;;11.10;61.50;;;9.69;61.40;96653.03;5045844;28;20457;-64
2021/03/27 09:27:56;;;;;;;0.90;0.60;;;11.10;59.60;;;9.68;59.67;96654.00;5047166;28;20115;-64
2021/03/27 09:30:58;;;;;;;3.50;1.15;;;11.00;58.30;;;9.64;58.50;96654.53;5031274;28;20171;-68
2021/03/27 09:33:29;;;;;;;1.25;0.77;;;10.80;57.10;;;9.63;59.09;96656.31;5045503;28;20044;-68
2021/03/27 09:36:09;;;;;;;1.60;0.82;;;10.90;56.40;;;9.61;57.43;96658.31;5038905;28;20048;-68
2021/03/27 09:39:03;;;;;;;2.58;0.90;;;10.80;55.20;;;9.76;57.23;96667.13;5012486;28;20039;-68
2021/03/27 09:42:02;;;;;;;1.45;0.68;;;11.40;53.70;;;9.89;57.09;96665.75;5035803;28;20037;-70
2021/03/27 09:45:11;;;;;;;2.60;0.50;;;11.40;53.30;;;10.08;56.86;96670.59;5041681;28;20037;-69
2021/03/27 09:48:15;;;;;;;1.67;0.60;;;11.80;53.70;;;10.25;56.30;96666.13;5028097;28;20065;-67
2021/03/27 09:50:51;;;;;;;1.83;0.82;;;12.10;52.30;;;10.66;55.70;96670.13;5012477;28;20037;-67
2021/03/27 09:53:27;;;;;;;1.08;0.68;;;12.90;51.10;;;10.89;56.26;96664.06;5017036;28;20071;-64
2021/03/27 09:56:34;;;;;;;2.78;0.60;;;12.80;51.80;;;11.05;54.20;96666.53;5011404;28;20044;-65
2021/03/27 09:59:43;;;;;;;1.10;0.50;;;12.80;49.30;;;11.25;53.43;96669.47;5014670;28;20025;-67
2021/03/27 10:02:39;;;;;;;1.60;0.60;;;13.20;49.40;;;11.56;53.83;96662.28;5021801;28;20045;-66
2021/03/27 10:05:58;;;;;;;2.13;0.60;;;13.30;48.20;;;11.91;52.34;96655.47;5041023;28;20056;-66
2021/03/27 10:08:38;;;;;;;1.35;0.50;;;14.00;46.40;;;12.36;52.20;96663.28;5032116;28;20052;-66
2021/03/27 10:11:09;;;;;;;1.63;0.88;;;14.80;45.00;;;12.85;53.25;96669.47;5021554;28;20061;-65
2021/03/27 10:13:38;;;;;;;0.60;0.50;;;15.30;43.60;;;13.41;50.99;96664.31;5029877;28;20659;-65
2021/03/27 10:16:11;;;;;;;1.65;0.80;;;15.70;42.80;;;13.59;49.75;96674.38;5035544;28;20030;-65
2021/03/27 10:18:52;;;;;;;0.93;0.65;;;15.40;43.50;;;13.68;49.19;96681.16;5043250;28;20064;-65
2021/03/27 10:21:39;;;;;;;;;;;15.10;43.50;;;13.89;47.89;96682.09;5044673;28;20094;-66
2021/03/27 10:24:13;;;;;;;1.73;0.75;;;15.60;43.10;;;14.09;50.10;96672.41;5042735;28;19978;-64
2021/03/27 10:26:55;;;;;;;2.13;0.50;;;15.80;43.40;;;14.19;49.02;96672.03;5022944;28;20038;-68
2021/03/27 10:29:41;;;;;;;2.03;0.93;;;16.00;43.10;;;14.41;47.71;96665.63;5018739;28;20044;-67
2021/03/27 10:32:31;;;;;;;1.33;0.80;;;15.70;41.80;;;14.19;45.20;96682.63;5019651;28;20033;-67
2021/03/27 10:35:32;;;;;;;1.08;0.55;;;15.30;41.60;;;14.02;45.98;96682.94;5030841;28;20413;-68
2021/03/27 10:38:23;;;;;;;2.45;1.13;;;15.00;42.10;;;14.05;46.76;96666.72;5030985;28;20036;-67
2021/03/27 10:41:20;;;;;;;2.15;0.77;;;15.50;41.90;;;14.58;44.79;96671.41;5014982;28;20030;-67
2021/03/27 10:44:07;;;;;;;2.30;0.52;;;16.30;39.00;;;14.64;43.77;96671.41;5028191;28;20544;-67
2021/03/27 10:46:46;;;;;;;1.73;0.60;;;15.80;38.20;;;14.61;42.01;96679.75;5025302;28;20087;-68
2021/03/27 10:49:25;;;;;;;2.67;0.90;;;15.80;36.40;;;14.67;41.63;96688.72;5025255;28;20037;-68
2021/03/27 10:52:10;;;;;;;1.13;0.60;;;15.90;35.60;;;14.94;40.48;96690.44;5044784;28;20040;-67
2021/03/27 10:55:19;;;;;;;0.77;0.50;;;16.50;34.40;;;16.01;40.07;96688.53;5025844;28;20038;-68
2021/03/27 10:58:39;;;;;;;0.75;0.47;;;18.10;32.10;;;16.88;38.71;96685.34;4968184;28;20595;-69
2021/03/27 11:01:25;;;;;;;0.65;0.40;;;19.10;31.50;;;17.26;38.37;96685.28;4981167;28;20113;-68
2021/03/27 11:04:34;;;;;;;1.48;0.43;;;18.40;31.70;;;17.39;36.33;96687.81;5033271;28;20062;-68
2021/03/27 11:07:41;;;;;;;1.30;0.57;;;18.30;31.70;;;17.26;36.30;96687.13;5031833;28;20129;-68
2021/03/27 11:10:22;;;;;;;1.52;0.63;;;17.80;32.70;;;17.23;36.26;96687.56;5008508;28;20635;-68
2021/03/27 11:13:25;;;;;;;1.45;0.60;;;18.40;32.00;;;17.07;35.01;96692.38;5010716;28;20033;-68
2021/03/27 11:16:22;;;;;;;1.15;0.50;;;17.60;30.20;;;16.34;34.02;96691.09;5026442;28;20921;-68
2021/03/27 11:19:12;;;;;;;2.55;0.43;;;16.60;31.20;;;15.96;36.50;96698.97;5026995;28;20035;-67
2021/03/27 11:22:17;;;;;;;2.97;0.50;;;16.90;32.30;;;15.79;35.54;96701.25;5026676;28;20420;-68
2021/03/27 11:25:28;;;;;;;1.95;0.40;;;16.80;31.70;;;16.17;35.95;96693.41;5040182;28;20037;-69
2021/03/27 11:28:15;;;;;;;2.35;0.50;;;17.90;29.70;;;16.65;34.59;96695.66;4974656;28;20035;-68
2021/03/27 11:31:03;;;;;;;2.00;0.70;;;18.40;29.60;;;17.31;34.34;96688.09;5028686;28;20091;-68
2021/03/27 11:33:33;;;;;;;1.20;0.60;;;19.00;27.70;;;18.41;34.57;96698.09;5030112;28;20051;-69
2021/03/27 11:36:09;;;;;;;1.83;0.90;;;20.50;27.90;;;19.36;31.60;96699.03;5024294;28;20033;-66
2021/03/27 11:38:56;;;;;;;1.80;0.77;;;20.80;26.40;;;19.12;30.77;96695.50;5036517;28;20056;-66
2021/03/27 11:41:58;;;;;;;1.20;0.60;;;19.00;28.20;;;18.64;31.85;96706.25;5009062;28;20140;-67
2021/03/27 11:44:55;;;;;;;3.92;0.80;;;18.90;28.80;;;17.70;32.68;96707.44;5037336;28;20860;-68
2021/03/27 11:47:33;;;;;;;1.85;0.50;;;17.10;31.60;;;17.03;34.37;96720.41;5024394;28;20043;-70
2021/03/27 11:50:41;;;;;;;2.22;0.70;;;16.60;33.00;;;16.04;33.80;96719.97;5026522;28;20112;-70
2021/03/27 11:53:35;;;;;;;1.55;0.60;;;15.50;34.20;;;15.21;35.96;96715.13;5010500;28;20052;-68
2021/03/27 11:56:44;;;;;;;1.88;0.70;;;14.80;35.60;;;14.31;37.07;96711.00;5010055;28;20030;-67
2021/03/27 12:02:57;;;;;;;1.60;0.85;;;13.60;38.70;;;12.96;38.95;96717.53;5009301;28;20037;-66
2021/03/27 12:05:36;;;;;;;1.65;0.60;;;13.10;39.30;;;12.54;39.96;96719.13;5033025;28;20057;-68
2021/03/27 12:08:28;;;;;;;0.90;0.43;;;12.90;40.50;;;12.31;40.32;96729.00;5024418;28;20743;-67
2021/03/27 12:11:22;;;;;;;3.05;0.70;;;12.80;41.20;;;11.91;41.14;96725.81;5034726;28;20042;-69